Terminal Aerodrome Forecast
Issued by NWS

Home | Current Version | Previous Version | Graphics & Text | Print | Product List | Glossary On
Versions: 1 2 3 4 5 6 7 8 9 10 11 12 13 14
299
FTUS43 KOAX 241729
TAFCDR
TAF
KCDR 241729Z 2418/2518 14010KT P6SM BKN080
     FM242000 15015G25KT P6SM BKN080
     FM242300 16010KT P6SM VCTS BKN080CB
      TEMPO 2423/2503 VRB25G35KT 3SM -TSRA BKN080CB
     FM250300 VRB05KT P6SM SCT100
     FM251500 26015G25KT P6SM SCT100=

USA.gov is the U.S. government's official web portal to all federal, state and local government web resources and services.